createdAt,value
2022-12-17T00:02:42.594Z,2.59
2022-12-17T00:05:28.547Z,2.76
2022-12-17T00:08:18.178Z,2.83
2022-12-17T00:11:04.375Z,2.65
2022-12-17T00:13:51.267Z,2.68
2022-12-17T00:16:37.910Z,2.87
2022-12-17T00:19:23.774Z,2.86
2022-12-17T00:22:09.654Z,2.93
2022-12-17T00:24:56.405Z,2.53
2022-12-17T00:27:42.374Z,2.73
2022-12-17T00:30:30.034Z,2.60
2022-12-17T00:33:16.037Z,2.88
2022-12-17T00:35:58.621Z,2.66
2022-12-17T00:38:44.678Z,2.65
2022-12-17T00:41:30.475Z,2.74
2022-12-17T00:44:20.389Z,2.82
2022-12-17T00:47:07.676Z,2.37
2022-12-17T00:49:53.637Z,2.48
2022-12-17T00:52:42.147Z,2.00
2022-12-17T00:55:28.376Z,2.26
2022-12-17T00:58:15.068Z,2.23
2022-12-17T01:01:01.550Z,1.77
2022-12-17T01:03:48.634Z,1.85
2022-12-17T01:06:34.734Z,1.84
2022-12-17T01:09:20.326Z,2.06
2022-12-17T01:12:06.113Z,2.01
2022-12-17T01:14:51.671Z,2.06
2022-12-17T01:17:37.768Z,2.04
2022-12-17T01:20:26.050Z,2.13
2022-12-17T01:23:11.660Z,2.12
2022-12-17T01:25:57.658Z,2.20
2022-12-17T01:28:44.479Z,1.85
2022-12-17T01:31:39.022Z,1.89
2022-12-17T01:34:39.514Z,1.84
2022-12-17T01:37:26.708Z,1.87
2022-12-17T01:40:12.764Z,1.67
2022-12-17T01:42:59.863Z,2.05
2022-12-17T01:45:46.253Z,1.73
2022-12-17T01:48:34.396Z,1.83
2022-12-17T01:51:20.976Z,1.83
2022-12-17T01:54:06.286Z,1.57
2022-12-17T01:56:53.022Z,1.79
2022-12-17T01:59:43.796Z,1.79
2022-12-17T02:02:29.687Z,1.97
2022-12-17T02:05:15.519Z,2.20
2022-12-17T02:08:17.422Z,1.93
2022-12-17T02:11:08.712Z,1.63
2022-12-17T02:13:58.419Z,1.69
2022-12-17T02:16:49.903Z,1.85
2022-12-17T02:19:42.818Z,1.85
2022-12-17T02:22:34.493Z,1.82
2022-12-17T02:25:24.875Z,1.78
2022-12-17T02:28:12.310Z,1.55
2022-12-17T02:30:54.871Z,1.70
2022-12-17T02:33:40.746Z,1.57
2022-12-17T02:36:27.253Z,1.49
2022-12-17T02:39:13.182Z,1.36
2022-12-17T02:42:02.077Z,1.49
2022-12-17T02:44:50.320Z,1.50
2022-12-17T02:47:37.578Z,1.49
2022-12-17T02:50:24.143Z,1.44
2022-12-17T02:53:09.387Z,1.73
2022-12-17T02:55:55.948Z,1.62
2022-12-17T02:58:42.104Z,1.43
2022-12-17T03:01:29.258Z,1.35
2022-12-17T03:04:15.211Z,0.99
2022-12-17T03:07:02.650Z,1.19
2022-12-17T03:09:48.749Z,1.43
2022-12-17T03:12:34.538Z,1.49
2022-12-17T03:15:20.245Z,1.50
2022-12-17T03:18:07.163Z,1.45
2022-12-17T03:20:53.059Z,1.10
2022-12-17T03:23:39.151Z,1.35
2022-12-17T03:26:25.585Z,1.14
2022-12-17T03:29:11.026Z,1.21
2022-12-17T03:31:56.759Z,1.32
2022-12-17T03:34:43.964Z,1.08
2022-12-17T03:37:29.468Z,1.02
2022-12-17T03:40:15.332Z,0.67
2022-12-17T03:43:00.996Z,0.66
2022-12-17T03:45:46.755Z,0.69
2022-12-17T03:48:33.741Z,0.84
2022-12-17T03:51:29.905Z,1.14
2022-12-17T03:54:24.264Z,0.60
2022-12-17T03:57:15.793Z,0.80
2022-12-17T04:00:01.868Z,0.68
2022-12-17T04:02:47.913Z,0.94
2022-12-17T04:05:33.977Z,0.82
2022-12-17T04:08:21.291Z,0.88
2022-12-17T04:11:07.236Z,0.84
2022-12-17T04:13:53.182Z,1.02
2022-12-17T04:16:38.860Z,1.07
2022-12-17T04:19:24.630Z,1.03
2022-12-17T04:22:10.696Z,1.28
2022-12-17T04:24:57.590Z,1.21
2022-12-17T04:27:43.287Z,0.71
2022-12-17T04:30:30.032Z,0.96
2022-12-17T04:33:24.384Z,0.67
2022-12-17T04:36:10.377Z,0.67
2022-12-17T04:38:56.219Z,1.04
2022-12-17T04:41:43.602Z,1.18
2022-12-17T04:44:29.567Z,1.33
2022-12-17T04:47:15.485Z,1.53
2022-12-17T04:50:01.578Z,1.62
2022-12-17T04:52:47.548Z,1.37
2022-12-17T04:55:33.410Z,1.56
2022-12-17T04:58:22.505Z,1.36
2022-12-17T05:01:09.964Z,1.28
2022-12-17T05:03:56.131Z,1.74
2022-12-17T05:06:42.097Z,1.31
2022-12-17T05:09:28.000Z,1.23
2022-12-17T05:12:13.906Z,1.30
2022-12-17T05:15:01.259Z,1.34
2022-12-17T05:17:47.093Z,1.03
2022-12-17T05:20:33.012Z,0.93
2022-12-17T05:23:23.553Z,1.21
2022-12-17T05:26:16.406Z,1.24
2022-12-17T05:29:02.493Z,1.51
2022-12-17T05:31:49.706Z,1.67
2022-12-17T05:34:35.667Z,1.69
2022-12-17T05:37:21.547Z,1.79
2022-12-17T05:40:12.437Z,1.86
2022-12-17T05:42:58.631Z,1.63
2022-12-17T05:45:44.548Z,1.62
2022-12-17T05:48:31.660Z,1.16
2022-12-17T05:51:17.448Z,0.86
2022-12-17T05:54:03.395Z,0.67
2022-12-17T05:56:49.317Z,1.07
2022-12-17T05:59:35.232Z,0.64
2022-12-17T06:02:21.247Z,0.76
2022-12-17T06:05:08.515Z,0.78
2022-12-17T06:07:54.429Z,0.59
2022-12-17T06:10:40.472Z,0.38
2022-12-17T06:13:26.394Z,0.36
2022-12-17T06:16:12.918Z,0.49
2022-12-17T06:18:58.816Z,0.60
2022-12-17T06:21:46.046Z,0.51
2022-12-17T06:24:32.068Z,0.64
2022-12-17T06:27:18.021Z,0.65
2022-12-17T06:30:03.961Z,0.76
2022-12-17T06:32:49.859Z,0.89
2022-12-17T06:35:35.562Z,0.55
2022-12-17T06:38:24.399Z,0.59
2022-12-17T06:41:10.417Z,0.46
2022-12-17T06:43:56.155Z,0.46
2022-12-17T06:46:42.189Z,0.17
2022-12-17T06:49:28.006Z,0.06
2022-12-17T06:52:13.891Z,-0.04
2022-12-17T06:55:01.029Z,0.18
2022-12-17T06:57:50.376Z,-0.07
2022-12-17T07:00:36.684Z,-0.16
2022-12-17T07:03:22.622Z,-0.34
2022-12-17T07:06:08.416Z,-0.37
2022-12-17T07:08:54.337Z,-0.11
2022-12-17T07:11:41.445Z,-0.13
2022-12-17T07:14:27.282Z,0.07
2022-12-17T07:17:21.574Z,0.18
2022-12-17T07:20:07.325Z,0.21
2022-12-17T07:22:53.303Z,-0.04
2022-12-17T07:25:44.346Z,0.08
2022-12-17T07:28:33.087Z,0.07
2022-12-17T07:31:19.011Z,0.37
2022-12-17T07:34:04.991Z,0.19
2022-12-17T07:36:51.036Z,0.08
2022-12-17T07:39:37.039Z,-0.10
2022-12-17T07:42:23.176Z,0.10
2022-12-17T07:45:10.384Z,0.22
2022-12-17T07:47:56.458Z,0.67
2022-12-17T07:50:42.395Z,0.04
2022-12-17T07:53:28.303Z,0.68
2022-12-17T07:56:14.279Z,0.61
2022-12-17T07:59:00.070Z,0.36
2022-12-17T08:01:47.392Z,0.58
2022-12-17T08:04:33.500Z,1.11
2022-12-17T08:07:19.266Z,0.83
2022-12-17T08:10:05.080Z,0.54
2022-12-17T08:12:51.120Z,0.35
2022-12-17T08:15:36.867Z,0.20
2022-12-17T08:18:26.766Z,0.23
2022-12-17T08:21:12.881Z,-0.28
2022-12-17T08:23:58.717Z,0.81
2022-12-17T08:26:48.144Z,0.91
2022-12-17T08:29:34.292Z,0.54
2022-12-17T08:32:19.324Z,1.09
2022-12-17T08:35:06.562Z,1.28
2022-12-17T08:37:52.482Z,1.17
2022-12-17T08:40:38.326Z,1.30
2022-12-17T08:43:24.298Z,1.17
2022-12-17T08:46:10.740Z,1.51
2022-12-17T08:48:56.683Z,1.50
2022-12-17T08:51:43.986Z,1.60
2022-12-17T08:54:30.087Z,1.60
2022-12-17T08:57:27.019Z,1.66
2022-12-17T09:00:16.610Z,1.91
2022-12-17T09:03:02.542Z,1.66
2022-12-17T09:05:48.617Z,1.81
2022-12-17T09:08:35.869Z,1.73
2022-12-17T09:11:21.841Z,1.41
2022-12-17T09:14:19.236Z,1.30
2022-12-17T09:17:05.678Z,1.49
2022-12-17T09:19:53.818Z,1.27
2022-12-17T09:22:39.918Z,1.16
2022-12-17T09:25:27.606Z,1.26
2022-12-17T09:28:13.581Z,1.24
2022-12-17T09:30:59.526Z,1.58
2022-12-17T09:33:45.509Z,1.44
2022-12-17T09:36:31.418Z,1.26
2022-12-17T09:39:17.348Z,1.41
2022-12-17T09:42:11.131Z,1.49
2022-12-17T09:45:03.729Z,0.71
2022-12-17T09:48:07.330Z,0.49
2022-12-17T09:50:53.271Z,1.01
2022-12-17T09:53:42.868Z,0.61
2022-12-17T09:56:30.437Z,0.35
2022-12-17T09:59:17.817Z,0.43
2022-12-17T10:02:03.536Z,0.76
2022-12-17T10:04:52.775Z,0.71
2022-12-17T10:07:41.854Z,1.15
2022-12-17T10:10:34.895Z,1.59
2022-12-17T10:13:20.886Z,1.85
2022-12-17T10:16:08.176Z,1.56
2022-12-17T10:18:54.235Z,2.20
2022-12-17T10:21:42.972Z,1.61
2022-12-17T10:24:41.427Z,1.89
2022-12-17T10:27:28.424Z,1.77
2022-12-17T10:30:14.212Z,2.13
2022-12-17T10:33:01.476Z,2.45
2022-12-17T10:35:54.610Z,2.83
2022-12-17T10:38:41.758Z,2.79
2022-12-17T10:41:38.776Z,2.56
2022-12-17T10:44:42.070Z,2.94
2022-12-17T10:47:31.174Z,2.87
2022-12-17T10:50:19.634Z,2.61
2022-12-17T10:53:06.430Z,2.68
2022-12-17T10:55:53.575Z,2.65
2022-12-17T10:58:40.956Z,2.36
2022-12-17T11:01:30.561Z,1.66
2022-12-17T11:04:32.014Z,1.95
2022-12-17T11:07:19.238Z,2.81
2022-12-17T11:10:09.765Z,2.89
2022-12-17T11:12:58.313Z,2.42
2022-12-17T11:15:46.243Z,2.66
2022-12-17T11:18:36.758Z,2.93
2022-12-17T11:21:26.260Z,3.07
2022-12-17T11:24:19.123Z,2.41
2022-12-17T11:27:10.993Z,2.86
2022-12-17T11:29:56.990Z,3.20
2022-12-17T11:33:09.535Z,2.69
2022-12-17T11:36:01.716Z,3.30
2022-12-17T11:38:56.957Z,3.51
2022-12-17T11:41:56.081Z,3.88
2022-12-17T11:44:51.309Z,3.91
2022-12-17T11:47:46.236Z,3.57
2022-12-17T11:50:39.691Z,3.95
2022-12-17T11:53:38.230Z,4.08
2022-12-17T11:56:28.689Z,4.19
2022-12-17T11:59:18.803Z,4.20
2022-12-17T12:02:08.078Z,4.32
2022-12-17T12:05:26.263Z,4.17
2022-12-17T12:08:31.451Z,3.90
2022-12-17T12:11:29.722Z,4.33
2022-12-17T12:14:23.254Z,4.19
2022-12-17T12:17:13.585Z,4.44
2022-12-17T12:20:06.435Z,4.56
2022-12-17T12:22:56.306Z,4.57
2022-12-17T12:25:49.148Z,4.70
2022-12-17T12:28:43.556Z,4.51
2022-12-17T12:31:37.620Z,4.43
2022-12-17T12:34:27.393Z,4.41
2022-12-17T12:37:13.327Z,4.42
2022-12-17T12:40:03.960Z,4.23
2022-12-17T12:42:50.963Z,4.59
2022-12-17T12:45:50.009Z,4.47
2022-12-17T12:48:48.163Z,4.39
2022-12-17T12:51:38.035Z,4.48
2022-12-17T12:54:42.212Z,4.51
2022-12-17T12:57:49.908Z,4.69
2022-12-17T13:00:48.496Z,4.63
2022-12-17T13:03:43.930Z,3.88
2022-12-17T13:06:12.948Z,3.83
2022-12-17T13:08:41.465Z,3.97
2022-12-17T13:11:27.217Z,4.22
2022-12-17T13:13:56.858Z,4.28
2022-12-17T13:16:34.024Z,4.03
2022-12-17T13:19:05.955Z,4.31
2022-12-17T13:21:34.259Z,4.46
2022-12-17T13:24:11.738Z,4.49
2022-12-17T13:26:46.502Z,4.22
2022-12-17T13:29:24.347Z,3.82
2022-12-17T13:32:03.616Z,4.23
2022-12-17T13:34:42.397Z,4.14
2022-12-17T13:37:15.853Z,4.42
2022-12-17T13:39:50.986Z,4.38
2022-12-17T13:42:23.320Z,4.20
2022-12-17T13:44:55.646Z,4.01
2022-12-17T13:47:25.530Z,3.91
2022-12-17T13:50:32.730Z,3.43
2022-12-17T13:52:45.424Z,2.46
2022-12-17T13:55:21.034Z,2.61
2022-12-17T13:57:50.504Z,2.50
2022-12-17T14:00:22.097Z,2.00
2022-12-17T14:02:50.754Z,2.34
2022-12-17T14:05:32.622Z,2.08
2022-12-17T14:08:03.245Z,1.75
2022-12-17T14:10:31.376Z,2.04
2022-12-17T14:13:04.060Z,2.23
2022-12-17T14:15:32.347Z,2.49
2022-12-17T14:18:00.934Z,2.67
2022-12-17T14:20:32.337Z,2.74
2022-12-17T14:23:01.962Z,2.65
2022-12-17T14:25:32.811Z,1.76
2022-12-17T14:28:02.667Z,2.02
2022-12-17T14:30:43.039Z,1.94
2022-12-17T14:33:29.178Z,1.88
2022-12-17T14:36:02.515Z,1.90
2022-12-17T14:38:38.437Z,2.26
2022-12-17T14:41:36.335Z,2.46
2022-12-17T14:44:05.486Z,2.45
2022-12-17T14:46:35.662Z,2.40
2022-12-17T14:49:05.909Z,2.37
2022-12-17T14:51:38.034Z,2.34
2022-12-17T14:54:07.933Z,2.28
2022-12-17T14:56:36.177Z,2.12
2022-12-17T14:59:04.416Z,2.10
2022-12-17T15:01:33.130Z,1.98
2022-12-17T15:04:01.539Z,1.94
2022-12-17T15:06:29.927Z,1.87
2022-12-17T15:08:59.494Z,1.79
2022-12-17T15:11:28.447Z,1.69
2022-12-17T15:13:56.997Z,1.27
2022-12-17T15:16:25.426Z,0.72
2022-12-17T15:18:54.183Z,0.21
2022-12-17T15:21:22.532Z,0.50
2022-12-17T15:23:50.949Z,0.52
2022-12-17T15:26:21.401Z,0.65
2022-12-17T15:28:49.594Z,0.65
2022-12-17T15:31:23.187Z,0.65
2022-12-17T15:33:53.130Z,0.63
2022-12-17T15:36:21.509Z,0.58
2022-12-17T15:38:49.809Z,0.50
2022-12-17T15:41:35.836Z,0.39
2022-12-17T15:44:05.999Z,0.21
2022-12-17T15:46:34.696Z,-0.38
2022-12-17T15:49:03.830Z,-0.63
2022-12-17T15:51:32.301Z,-0.60
2022-12-17T15:54:00.767Z,-0.60
2022-12-17T15:56:29.846Z,-0.78
2022-12-17T15:58:58.598Z,-1.31
2022-12-17T16:01:28.423Z,-1.37
2022-12-17T16:03:56.807Z,-1.37
2022-12-17T16:06:25.221Z,-1.65
2022-12-17T16:08:53.433Z,-1.70
2022-12-17T16:11:22.093Z,-2.01
2022-12-17T16:13:54.998Z,-2.16
2022-12-17T16:16:23.981Z,-1.80
2022-12-17T16:18:53.605Z,-1.54
2022-12-17T16:21:21.860Z,-1.42
2022-12-17T16:23:50.220Z,-1.37
2022-12-17T16:26:18.498Z,-1.38
2022-12-17T16:28:47.058Z,-1.73
2022-12-17T16:31:16.590Z,-1.73
2022-12-17T16:33:47.462Z,-2.10
2022-12-17T16:36:18.625Z,-2.76
2022-12-17T16:38:48.360Z,-3.01
2022-12-17T16:41:17.611Z,-2.80
2022-12-17T16:43:46.495Z,-2.82
2022-12-17T16:46:28.973Z,-2.80
2022-12-17T16:48:58.817Z,-2.82
2022-12-17T16:51:29.765Z,-3.36
2022-12-17T16:53:58.987Z,-3.64
2022-12-17T16:56:29.168Z,-3.22
2022-12-17T16:58:57.692Z,-2.94
2022-12-17T17:01:28.168Z,-2.95
2022-12-17T17:03:57.399Z,-3.07
2022-12-17T17:06:30.260Z,-2.97
2022-12-17T17:09:04.647Z,-2.91
2022-12-17T17:11:32.958Z,-2.94
2022-12-17T17:14:01.305Z,-3.11
2022-12-17T17:16:30.419Z,-3.18
2022-12-17T17:18:58.761Z,-2.98
2022-12-17T17:21:29.524Z,-2.94
2022-12-17T17:23:59.953Z,-2.96
2022-12-17T17:26:29.861Z,-3.16
2022-12-17T17:28:58.323Z,-3.59
2022-12-17T17:32:01.061Z,-3.78
2022-12-17T17:34:15.958Z,-3.71
2022-12-17T17:36:44.331Z,-3.68
2022-12-17T17:39:12.600Z,-3.90
2022-12-17T17:41:42.304Z,-4.07
2022-12-17T17:44:13.211Z,-4.60
2022-12-17T17:46:41.811Z,-4.21
2022-12-17T17:49:11.897Z,-3.98
2022-12-17T17:52:12.354Z,-3.91
2022-12-17T17:54:30.728Z,-4.18
2022-12-17T17:57:00.359Z,-4.14
2022-12-17T17:59:33.395Z,-4.06
2022-12-17T18:02:02.451Z,-3.99
2022-12-17T18:04:31.702Z,-3.97
2022-12-17T18:07:24.152Z,-4.17
2022-12-17T18:09:48.203Z,-4.22
2022-12-17T18:12:35.512Z,-4.71
2022-12-17T18:15:19.102Z,-5.33
2022-12-17T18:17:51.004Z,-4.98
2022-12-17T18:20:20.607Z,-5.05
2022-12-17T18:22:50.488Z,-4.66
2022-12-17T18:25:18.940Z,-4.51
2022-12-17T18:27:48.720Z,-4.54
2022-12-17T18:30:17.311Z,-4.65
2022-12-17T18:32:46.203Z,-4.69
2022-12-17T18:35:14.505Z,-4.04
2022-12-17T18:37:42.843Z,-3.88
2022-12-17T18:40:11.857Z,-3.66
2022-12-17T18:42:57.754Z,-3.46
2022-12-17T18:45:27.320Z,-3.29
2022-12-17T18:47:55.545Z,-3.48
2022-12-17T18:50:23.877Z,-3.38
2022-12-17T18:52:52.130Z,-3.08
2022-12-17T18:55:20.439Z,-2.75
2022-12-17T18:57:48.693Z,-2.44
2022-12-17T19:00:17.173Z,-2.19
2022-12-17T19:02:46.930Z,-2.20
2022-12-17T19:05:15.487Z,-2.01
2022-12-17T19:07:43.804Z,-1.90
2022-12-17T19:10:12.082Z,-1.98
2022-12-17T19:12:40.397Z,-2.18
2022-12-17T19:15:09.957Z,-2.06
2022-12-17T19:17:38.178Z,-2.06
2022-12-17T19:20:09.228Z,-2.07
2022-12-17T19:22:37.532Z,-1.66
2022-12-17T19:25:06.511Z,-2.01
2022-12-17T19:27:34.722Z,-1.67
2022-12-17T19:30:02.991Z,-1.29
2022-12-17T19:32:31.539Z,-1.51
2022-12-17T19:34:59.748Z,-1.92
2022-12-17T19:37:29.429Z,-1.55
2022-12-17T19:39:57.702Z,-1.63
2022-12-17T19:42:26.909Z,-1.48
2022-12-17T19:44:56.747Z,-1.58
2022-12-17T19:47:25.248Z,-1.71
2022-12-17T19:49:53.540Z,-1.46
2022-12-17T19:52:21.805Z,-1.47
2022-12-17T19:54:51.462Z,-1.02
2022-12-17T19:57:19.805Z,-0.97
2022-12-17T19:59:48.068Z,-1.27
2022-12-17T20:02:17.432Z,-1.19
2022-12-17T20:04:45.854Z,-0.99
2022-12-17T20:07:14.055Z,-0.64
2022-12-17T20:09:44.608Z,-0.51
2022-12-17T20:12:14.248Z,-0.35
2022-12-17T20:14:42.516Z,-0.14
2022-12-17T20:17:10.995Z,-0.65
2022-12-17T20:19:39.303Z,-0.54
2022-12-17T20:22:07.865Z,-0.19
2022-12-17T20:24:37.266Z,-0.09
2022-12-17T20:27:05.831Z,-0.55
2022-12-17T20:29:35.826Z,-0.34
2022-12-17T20:32:04.252Z,-0.65
2022-12-17T20:34:32.778Z,-0.29
2022-12-17T20:37:01.082Z,-0.47
2022-12-17T20:39:29.912Z,-0.40
2022-12-17T20:41:58.540Z,-0.29
2022-12-17T20:44:26.922Z,-0.11
2022-12-17T20:46:56.633Z,-0.20
2022-12-17T20:49:24.891Z,-0.23
2022-12-17T20:51:53.182Z,-0.40
2022-12-17T20:54:22.138Z,-0.65
2022-12-17T20:56:50.401Z,-0.66
2022-12-17T20:59:19.770Z,-0.53
2022-12-17T21:01:54.260Z,-0.52
2022-12-17T21:04:25.582Z,-0.82
2022-12-17T21:06:53.887Z,-0.65
2022-12-17T21:09:22.863Z,-0.66
2022-12-17T21:11:51.304Z,-0.65
2022-12-17T21:14:20.298Z,-0.70
2022-12-17T21:16:48.692Z,-0.78
2022-12-17T21:19:18.848Z,-0.99
2022-12-17T21:21:48.814Z,-0.96
2022-12-17T21:24:17.155Z,-0.89
2022-12-17T21:26:47.226Z,-1.09
2022-12-17T21:29:16.601Z,-1.08
2022-12-17T21:31:46.820Z,-0.94
2022-12-17T21:34:17.988Z,-0.93
2022-12-17T21:36:48.392Z,-1.21
2022-12-17T21:39:17.943Z,-1.18
2022-12-17T21:42:07.374Z,-1.21
2022-12-17T21:44:36.613Z,-1.44
2022-12-17T21:47:05.499Z,-1.16
2022-12-17T21:49:34.833Z,-1.26
2022-12-17T21:52:08.454Z,-1.10
2022-12-17T21:54:40.302Z,-0.97
2022-12-17T21:57:09.435Z,-1.00
2022-12-17T21:59:38.418Z,-1.19
2022-12-17T22:02:07.376Z,-0.78
2022-12-17T22:04:36.451Z,-1.29
2022-12-17T22:07:17.388Z,-0.99
2022-12-17T22:10:22.535Z,-1.67
2022-12-17T22:13:00.611Z,-1.05
2022-12-17T22:15:32.118Z,-1.14
2022-12-17T22:18:05.282Z,-1.45
2022-12-17T22:20:33.608Z,-1.43
2022-12-17T22:23:04.810Z,-1.71
2022-12-17T22:25:33.230Z,-1.93
2022-12-17T22:28:01.497Z,-2.17
2022-12-17T22:30:47.344Z,-1.82
2022-12-17T22:33:39.692Z,-1.75
2022-12-17T22:38:41.682Z,-1.37
2022-12-17T22:43:03.241Z,-1.28
2022-12-17T22:44:43.046Z,-1.10
2022-12-17T22:44:53.268Z,-0.91
2022-12-17T22:47:22.491Z,-0.59
2022-12-17T22:49:50.791Z,-1.02
2022-12-17T22:52:20.379Z,-0.90
2022-12-17T22:54:50.432Z,-1.24
2022-12-17T22:57:37.379Z,-1.32
2022-12-17T23:00:13.108Z,-0.88
2022-12-17T23:02:41.354Z,-0.70
2022-12-17T23:05:10.441Z,-0.69
2022-12-17T23:07:38.661Z,-1.10
2022-12-17T23:10:09.011Z,-0.62
2022-12-17T23:12:52.508Z,-1.32
2022-12-17T23:15:24.564Z,-1.31
2022-12-17T23:17:54.526Z,-1.33
2022-12-17T23:20:23.695Z,-1.03
2022-12-17T23:22:51.939Z,-0.84
2022-12-17T23:25:22.489Z,-1.09
2022-12-17T23:27:51.026Z,-0.68
2022-12-17T23:30:20.677Z,-1.11
2022-12-17T23:32:49.182Z,-0.92
2022-12-17T23:35:17.506Z,-1.36
2022-12-17T23:37:45.835Z,-1.70
2022-12-17T23:40:14.832Z,-1.17
2022-12-17T23:42:44.419Z,-1.08
2022-12-17T23:45:13.704Z,-0.93
2022-12-17T23:47:42.079Z,-0.88
2022-12-17T23:50:11.223Z,-0.99
2022-12-17T23:52:39.611Z,-1.03
2022-12-17T23:55:08.733Z,-1.01
2022-12-17T23:57:36.966Z,-1.00
